EA5SW-13 Weather Reports


time (UTC)temp
F
wind
direction
speed
knots
gust
knots
rain 1hr
in
rain 24hr
in
rain mn
in
humidity
%
barometer
mb
20221203064023 48 0.0 0.0 0.00 0.00 0.00 70 1008.7
20221203063020 47 135 0.0 0.9 0.00 0.00 0.00 70 1008.8
20221203062017 47 5 0.0 2.6 0.00 0.00 0.00 69 1008.7
20221203061114 48 73 0.9 3.5 0.00 0.00 0.00 68 1008.8
20221203060111 48 0 0.0 2.6 0.00 0.00 0.00 67 1008.6
20221203055108 48 180 0.0 0.9 0.00 0.00 0.00 67 1008.6
20221203054105 48 0.0 0.0 0.00 0.00 0.00 67 1008.5
20221203053102 48 0.0 0.0 0.00 0.00 0.00 66 1008.6
20221203052059 48 300 0.0 1.7 0.00 0.00 0.00 66 1008.5
20221203051056 48 315 0.0 0.9 0.00 0.00 0.00 66 1008.7
20221203050113 48 346 0.0 0.9 0.00 0.00 0.00 65 1008.7
20221203045049 49 351 0.9 2.6 0.00 0.00 0.00 65 1008.9
20221203044046 48 248 0.0 1.7 0.00 0.00 0.00 65 1008.9
20221203043103 49 100 0.0 1.7 0.00 0.00 0.00 64 1008.8
20221203042041 49 311 0.0 1.7 0.00 0.00 0.00 64 1008.7
20221203041037 49 232 0.0 1.7 0.00 0.00 0.00 64 1008.9
20221203040055 48 74 0.0 1.7 0.00 0.00 0.00 65 1008.8
20221203035031 48 108 0.0 1.7 0.00 0.00 0.00 65 1008.8
20221203034028 48 326 0.0 2.6 0.00 0.00 0.00 66 1009.0
20221203033025 48 358 1.7 5.2 0.00 0.00 0.00 66 1009.1
20221203032022 48 45 0.0 2.6 0.00 0.00 0.00 66 1009.1
20221203031020 48 270 0.0 0.9 0.00 0.00 0.00 67 1009.1
20221203030016 48 342 0.9 2.6 0.00 0.00 0.00 67 1009.3
20221203025154 48 279 0.0 2.6 0.00 0.00 0.00 67 1009.3
20221203024131 48 270 0.9 2.6 0.00 0.00 0.00 66 1009.5
20221203023107 48 190 0.9 2.6 0.00 0.00 0.00 66 1009.5
20221203022224 48 26 1.7 3.5 0.00 0.00 0.00 66 1009.7
20221203021100 48 112 0.0 2.6 0.00 0.00 0.00 66 1009.7
20221203020056 48 132 0.9 2.6 0.00 0.00 0.00 66 1009.8
20221203015053 48 289 0.0 2.6 0.00 0.00 0.00 66 1009.8
20221203014050 48 254 0.9 2.6 0.00 0.00 0.00 66 1009.9
20221203013107 48 130 0.9 2.6 0.00 0.00 0.00 67 1010.0
20221203012044 48 324 0.9 2.6 0.00 0.00 0.00 66 1010.0
20221203011103 49 31 2.6 5.2 0.00 0.00 0.00 65 1010.1
20221203010038 49 53 0.9 3.5 0.00 0.00 0.00 65 1010.1
20221203005035 49 6 1.7 5.2 0.00 0.00 0.00 65 1010.3
20221203004031 49 14 1.7 4.3 0.00 0.00 0.00 65 1010.4
20221203003028 49 62 1.7 3.5 0.00 0.00 0.00 64 1010.4
20221203002025 50 27 0.9 2.6 0.00 0.00 0.00 64 1010.5
20221203001022 50 12 0.0 0.9 0.00 0.00 0.00 64 1010.5
20221203000020 50 250 0.9 3.5 0.00 0.00 0.00 63 1010.5
20221202235036 51 56 0.9 2.6 0.00 0.00 0.00 63 1010.6
20221202234113 51 3 0.9 3.5 0.00 0.00 0.00 62 1010.7
20221202233132 52 45 0.0 2.6 0.00 0.00 0.00 61 1010.8
20221202232127 52 135 0.0 0.9 0.00 0.00 0.00 61 1010.9
20221202231104 52 315 0.0 0.9 0.00 0.01 0.00 61 1011.1
20221202230121 52 288 0.0 1.7 0.00 0.01 0.00 60 1011.1
20221202225058 53 0.0 0.0 0.00 0.03 0.02 60 1011.2
20221202224055 53 0.0 0.9 0.00 0.05 0.02 59 1011.1
20221202223052 53 180 0.0 0.9 0.00 0.05 0.02 59 1011.2
20221202222049 53 234 0.0 0.9 0.00 0.05 0.02 58 1011.2
20221202221046 53 239 0.0 0.9 0.00 0.05 0.02 57 1011.2
20221202220043 53 191 0.0 1.7 0.00 0.05 0.02 57 1011.3
20221202215100 53 176 2.6 6.1 0.00 0.05 0.02 57 1011.3
20221202214036 53 180 2.6 4.3 0.00 0.05 0.02 57 1011.2
20221202213033 53 189 1.7 4.3 0.00 0.05 0.02 57 1011.2
20221202212030 54 150 3.5 6.1 0.00 0.05 0.02 57 1011.1
20221202211027 54 180 1.7 3.5 0.00 0.05 0.02 57 1011.2
20221202210024 54 153 0.9 3.5 0.00 0.05 0.02 58 1011.3
20221202205042 54 161 1.7 3.5 0.00 0.05 0.02 55 1011.2
20221202204018 54 249 2.6 4.3 0.00 0.05 0.02 53 1011.1
20221202203015 54 197 1.7 3.5 0.00 0.05 0.02 53 1011.1
20221202202132 54 155 1.7 3.5 0.00 0.05 0.02 54 1011.1
20221202201109 54 174 2.6 4.3 0.00 0.05 0.02 55 1011.2
20221202200106 54 157 1.7 3.5 0.00 0.05 0.02 57 1011.3
20221202195143 54 210 1.7 3.5 0.00 0.05 0.02 59 1011.4
20221202194100 54 179 0.9 2.6 0.00 0.05 0.02 60 1011.4
20221202193056 54 153 0.9 3.5 0.00 0.05 0.02 60 1011.4
20221202192053 55 189 1.7 4.3 0.00 0.05 0.02 60 1011.4
20221202191050 55 164 1.7 3.5 0.00 0.05 0.02 60 1011.4
20221202190047 55 129 0.9 2.6 0.00 0.05 0.02 60 1011.4
20221202185044 55 291 0.9 2.6 0.00 0.05 0.02 60 1011.4
20221202184101 55 151 0.0 1.7 0.00 0.05 0.02 60 1011.5
20221202183058 55 157 0.0 1.7 0.00 0.05 0.02 59 1011.4
20221202182035 55 167 0.9 3.5 0.00 0.05 0.02 58 1011.4
20221202181031 56 53 0.0 1.7 0.00 0.05 0.02 57 1011.3
20221202180028 56 163 0.9 2.6 0.00 0.05 0.02 57 1011.3
20221202175025 56 175 0.9 3.5 0.00 0.05 0.02 57 1011.3
20221202174022 56 144 0.9 2.6 0.00 0.05 0.02 57 1011.3
20221202173019 56 115 0.9 2.6 0.00 0.05 0.02 58 1011.4
20221202172016 56 193 0.0 2.6 0.00 0.05 0.02 59 1011.4
20221202171113 56 237 0.0 1.7 0.00 0.05 0.02 59 1011.3
20221202170112 56 225 0.9 2.6 0.00 0.05 0.02 59 1011.3
20221202165128 57 129 1.7 6.1 0.00 0.05 0.02 58 1011.4
20221202164104 57 122 0.9 2.6 0.00 0.05 0.02 57 1011.3
20221202163101 57 180 0.9 2.6 0.00 0.05 0.02 56 1011.3
20221202162158 57 174 0.9 2.6 0.00 0.05 0.02 56 1011.4
20221202161055 57 175 0.9 2.6 0.00 0.05 0.02 55 1011.4
20221202160052 58 215 0.9 3.5 0.00 0.05 0.02 54 1011.4
20221202155049 58 189 0.9 2.6 0.00 0.05 0.02 55 1011.3
20221202154046 58 225 0.0 1.7 0.00 0.05 0.02 54 1011.3
20221202153043 58 203 0.9 4.3 0.00 0.05 0.02 54 1011.2
20221202152039 57 105 0.9 2.6 0.00 0.05 0.02 53 1011.2
20221202151056 57 159 0.9 2.6 0.00 0.05 0.02 54 1011.2
20221202150035 57 145 1.7 5.2 0.00 0.05 0.02 53 1011.1
20221202145031 57 247 1.7 8.7 0.00 0.05 0.02 54 1011.2
20221202144027 58 126 1.7 2.6 0.00 0.05 0.02 53 1011.1
20221202143024 58 132 0.9 3.5 0.00 0.05 0.02 52 1011.1
20221202141038 58 257 0.9 3.5 0.00 0.05 0.02 52 1011.4
20221202140015 58 245 1.7 4.3 0.00 0.05 0.02 52 1011.5
20221202135112 58 50 1.7 2.6 0.00 0.05 0.02 52 1011.6
20221202134109 58 76 1.7 5.2 0.00 0.05 0.02 52 1011.7
20221202133106 58 238 0.9 4.3 0.00 0.05 0.02 52 1011.8
20221202132103 58 314 0.9 3.5 0.00 0.05 0.02 51 1011.9
20221202131100 58 125 1.7 5.2 0.00 0.05 0.02 51 1011.9
20221202130057 58 148 1.7 5.2 0.00 0.05 0.02 51 1012.0
20221202125053 58 138 2.6 7.8 0.00 0.05 0.02 51 1012.2
20221202124050 58 218 1.7 5.2 0.00 0.05 0.02 51 1012.4
20221202123048 57 66 0.9 2.6 0.00 0.05 0.02 51 1012.5
20221202122044 58 10 1.7 5.2 0.00 0.05 0.02 51 1012.5
20221202121041 58 79 2.6 4.3 0.00 0.05 0.02 51 1012.8
20221202120038 58 201 1.7 4.3 0.00 0.05 0.02 51 1012.9
20221202115034 59 150 1.7 4.3 0.00 0.05 0.02 50 1013.0
20221202114031 58 164 0.9 2.6 0.00 0.05 0.02 52 1013.2
20221202113028 57 110 1.7 4.3 0.00 0.05 0.02 52 1013.5
20221202112045 57 172 0.9 2.6 0.00 0.05 0.02 52 1013.6
20221202111022 56 146 1.7 5.2 0.00 0.05 0.02 52 1013.7
20221202110018 56 338 2.6 7.8 0.00 0.05 0.02 53 1013.8
20221202105015 56 196 2.6 6.1 0.00 0.05 0.02 53 1014.0
20221202104112 56 97 2.6 6.1 0.00 0.05 0.02 53 1014.2
20221202103109 56 238 1.7 4.3 0.00 0.05 0.02 53 1014.2
20221202102106 56 181 1.7 6.1 0.00 0.05 0.02 53 1014.3
20221202101103 55 153 0.9 2.6 0.00 0.05 0.02 53 1014.3
20221202100100 55 194 1.7 5.2 0.00 0.05 0.02 53 1014.4
20221202095118 55 159 1.7 3.5 0.00 0.05 0.02 53 1014.3
20221202094054 55 146 3.5 6.1 0.00 0.05 0.02 53 1014.2
20221202093051 54 282 1.7 5.2 0.00 0.05 0.02 54 1014.2
20221202092108 54 128 1.7 6.1 0.00 0.05 0.02 54 1014.3
20221202091044 54 215 1.7 6.1 0.00 0.05 0.02 54 1014.1
20221202090042 54 190 1.7 3.5 0.00 0.05 0.02 55 1014.2
20221202085038 54 261 2.6 7.0 0.00 0.05 0.02 60 1014.0
20221202084036 54 63 3.5 6.1 0.00 0.05 0.02 60 1014.0
20221202083054 53 172 2.6 5.2 0.00 0.05 0.02 61 1014.2
20221202082031 53 119 1.7 6.1 0.00 0.05 0.02 61 1014.0
20221202081047 53 148 1.7 4.3 0.00 0.05 0.02 62 1014.0
20221202080023 53 101 2.6 5.2 0.00 0.05 0.02 62 1014.1
20221202075040 53 288 1.7 3.5 0.00 0.05 0.02 62 1014.1
20221202074017 53 250 1.7 2.6 0.00 0.05 0.02 62 1014.1
20221202073114 53 267 2.6 6.1 0.00 0.05 0.02 63 1013.9
20221202072111 53 164 2.6 5.2 0.00 0.05 0.02 63 1014.0
20221202071107 53 203 1.7 5.2 0.00 0.05 0.02 63 1014.0
20221202070104 53 134 2.6 4.3 0.00 0.05 0.02 63 1014.0
20221202065101 53 132 1.7 3.5 0.00 0.05 0.02 64 1014.0